Gillsville, Georgia
Current Conditions -  °F | °C
As of 11:15 AM on Monday 26 Jan 2015 (Local Time) from K19A Reporting Station
Overcast Overcast  
Wind Chill: 40°   Ceiling: 2400
Heat Index: 46°   Visibility: 10mi
Dew Point: 39°   Wind: 14mph
Humidity: 76%   Direction: 280°W
Pressure: 29.79"   Gusts: 24mph
Location:  34.31°N, 83.63°W
Report Text: K19A 261615Z AUTO 28012G21KT 10SM BKN024 BKN032 OVC038 08/04 A2979 RMK AO2
Loading
Personal Weather Stations






























Interactive Weather Map New forecast layout! Learn more

10-Day Weather Forecast

Advertisements
Track Severe Weather on mobile